Time;durP1;ratioP1;P1;durP2;ratioP2;P2;SDS_P1;SDS_P2;PMS_P1;PMS_P2;Temp;Humidity;BMP_temperature;BMP_pressure;BME280_temperature;BME280_humidity;BME280_pressure;Samples;Min_cycle;Max_cycle;Signal;HPM_P1;HPM_P2
2022/03/15 00:01:06;;;;;;;5.83;4.10;;;10.50;41.90;;;;;;20868;6722;117193;-78
2022/03/15 00:03:41;;;;;;;4.37;3.97;;;10.50;41.30;;;;;;20927;6738;117164;-77
2022/03/15 00:06:17;;;;;;;4.78;4.05;;;10.40;41.40;;;;;;20730;6732;307790;-77
2022/03/15 00:08:56;;;;;;;5.00;4.53;;;11.10;41.40;;;;;;20707;6738;310507;-77
2022/03/15 00:11:34;;;;;;;4.67;4.27;;;11.10;41.40;;;;;;20817;6728;119870;-77
2022/03/15 00:14:06;;;;;;;4.97;4.57;;;11.00;40.90;;;;;;20919;6740;117994;-77
2022/03/15 00:16:42;;;;;;;9.60;4.50;;;10.80;41.00;;;;;;20873;6755;116536;-77
2022/03/15 00:19:18;;;;;;;4.80;4.10;;;10.60;41.10;;;;;;20918;6723;116810;-78
2022/03/15 00:21:53;;;;;;;4.93;4.30;;;10.40;41.30;;;;;;20786;6738;117294;-77
2022/03/15 00:24:29;;;;;;;4.55;4.15;;;10.40;41.90;;;;;;20721;6738;305968;-77
2022/03/15 00:27:05;;;;;;;5.00;3.90;;;10.40;41.90;;;;;;20861;6753;118062;-77
2022/03/15 00:29:41;;;;;;;4.87;4.40;;;10.50;41.50;;;;;;20805;6761;117181;-77
2022/03/15 00:32:19;;;;;;;4.40;4.00;;;10.30;41.50;;;;;;20917;6723;117352;-77
2022/03/15 00:34:53;;;;;;;5.87;4.50;;;10.10;41.60;;;;;;20680;6732;337253;-77
2022/03/15 00:37:29;;;;;;;4.73;4.03;;;10.40;42.00;;;;;;20909;6728;116770;-77
2022/03/15 00:40:04;;;;;;;4.20;3.80;;;10.40;41.50;;;;;;20676;6728;277621;-77
2022/03/15 00:42:40;;;;;;;4.63;4.23;;;10.60;41.80;;;;;;20914;6726;119761;-76
2022/03/15 00:45:15;;;;;;;5.80;4.50;;;10.60;41.60;;;;;;20900;6726;119158;-77
2022/03/15 00:47:51;;;;;;;4.67;4.27;;;10.40;41.60;;;;;;20918;6726;116820;-77
2022/03/15 00:50:30;;;;;;;5.77;4.50;;;10.20;41.80;;;;;;20840;6726;118101;-77
2022/03/15 00:53:03;;;;;;;5.62;4.45;;;10.10;42.00;;;;;;20688;6726;277587;-78
2022/03/15 00:55:37;;;;;;;4.97;4.15;;;10.30;42.50;;;;;;20707;6726;276774;-77
2022/03/15 00:58:13;;;;;;;4.30;3.90;;;10.80;42.00;;;;;;20914;6726;116665;-77
2022/03/15 01:00:52;;;;;;;6.23;4.40;;;10.70;41.60;;;;;;20837;6726;116768;-77
2022/03/15 01:03:24;;;;;;;4.67;4.03;;;10.40;41.60;;;;;;20903;6726;116793;-77
2022/03/15 01:06:00;;;;;;;6.90;4.47;;;10.20;41.80;;;;;;20924;6726;117308;-77
2022/03/15 01:08:36;;;;;;;4.77;4.30;;;10.20;42.70;;;;;;20707;6726;313238;-76
2022/03/15 01:11:12;;;;;;;4.80;4.27;;;10.10;42.60;;;;;;20587;6726;280614;-77
2022/03/15 01:13:47;;;;;;;4.57;4.27;;;10.60;42.30;;;;;;20874;6741;118822;-77
2022/03/15 01:16:24;;;;;;;4.50;4.17;;;10.30;41.90;;;;;;20915;6726;120195;-77
2022/03/15 01:19:00;;;;;;;4.57;4.18;;;10.30;41.90;;;;;;20648;6741;303117;-77
2022/03/15 01:21:35;;;;;;;4.67;3.97;;;10.50;42.30;;;;;;20528;6741;297074;-76
2022/03/15 01:24:11;;;;;;;5.70;4.27;;;11.10;41.50;;;;;;20605;6755;281230;-77
2022/03/15 01:26:47;;;;;;;4.60;4.20;;;11.10;41.40;;;;;;20875;6740;120248;-77
2022/03/15 01:29:24;;;;;;;4.60;4.20;;;10.90;41.20;;;;;;20604;6755;309712;-77
2022/03/15 01:31:59;;;;;;;4.67;4.20;;;10.90;41.30;;;;;;20765;6741;117228;-77
2022/03/15 01:34:35;;;;;;;4.70;4.20;;;10.70;41.30;;;;;;20677;6741;305339;-77
2022/03/15 01:37:10;;;;;;;4.50;4.20;;;10.70;41.60;;;;;;20702;6741;305163;-77
2022/03/15 01:39:46;;;;;;;5.37;4.43;;;10.90;41.50;;;;;;20834;6755;120067;-77
2022/03/15 01:42:21;;;;;;;4.37;4.03;;;10.70;41.50;;;;;;20870;6741;116838;-77
2022/03/15 01:44:57;;;;;;;6.15;5.22;;;10.40;41.90;;;;;;20616;6756;310247;-77
2022/03/15 01:47:33;;;;;;;5.70;5.20;;;10.70;41.80;;;;;;20608;6750;335641;-80
2022/03/15 01:50:09;;;;;;;5.27;4.87;;;10.70;41.80;;;;;;20573;6755;309407;-77
2022/03/15 01:52:44;;;;;;;4.53;4.20;;;10.90;41.40;;;;;;20916;6726;116960;-77
2022/03/15 01:55:20;;;;;;;6.00;4.20;;;10.70;41.30;;;;;;20909;6726;118750;-76
2022/03/15 01:57:56;;;;;;;5.87;4.70;;;10.10;42.10;;;;;;20922;6726;117358;-77
2022/03/15 02:00:32;;;;;;;4.97;4.43;;;10.10;42.10;;;;;;20862;6726;116843;-78
2022/03/15 02:03:07;;;;;;;6.17;3.93;;;9.90;43.30;;;;;;20899;6726;117703;-80
2022/03/15 02:05:44;;;;;;;4.40;3.80;;;9.80;43.50;;;;;;20915;6726;117006;-79
2022/03/15 02:08:23;;;;;;;4.78;4.32;;;9.70;43.70;;;;;;20678;6726;335727;-77
2022/03/15 02:10:55;;;;;;;4.43;4.00;;;10.00;43.30;;;;;;20816;6726;121570;-77
2022/03/15 02:13:31;;;;;;;4.87;4.23;;;10.00;42.70;;;;;;20848;6740;118801;-78
2022/03/15 02:16:08;;;;;;;4.53;4.13;;;9.80;43.70;;;;;;20638;6741;305591;-78
2022/03/15 02:18:43;;;;;;;4.60;4.20;;;10.10;43.60;;;;;;20831;6741;118434;-77
2022/03/15 02:21:19;;;;;;;4.67;3.90;;;10.10;43.10;;;;;;20701;6741;118493;-77
2022/03/15 02:23:54;;;;;;;5.05;4.57;;;9.90;44.00;;;;;;20698;6726;305853;-78
2022/03/15 02:26:30;;;;;;;5.05;4.55;;;10.10;43.20;;;;;;20697;6726;307381;-79
2022/03/15 02:29:06;;;;;;;4.13;3.80;;;10.50;42.70;;;;;;20901;6726;117329;-77
2022/03/15 02:31:41;;;;;;;4.80;4.00;;;10.40;42.30;;;;;;20750;6726;119637;-77
2022/03/15 02:34:17;;;;;;;3.80;3.47;;;10.10;42.50;;;;;;20862;6740;116669;-77
2022/03/15 02:36:52;;;;;;;3.87;3.47;;;9.90;43.80;;;;;;20864;6740;116843;-77
2022/03/15 02:39:28;;;;;;;4.95;4.45;;;9.70;44.00;;;;;;20639;6740;327206;-77
2022/03/15 02:42:03;;;;;;;8.40;6.80;;;10.00;43.40;;;;;;20516;6735;307324;-77
2022/03/15 02:44:39;;;;;;;4.40;4.10;;;10.40;42.90;;;;;;20893;6735;117223;-79
2022/03/15 02:47:15;;;;;;;4.57;3.80;;;10.30;42.50;;;;;;20906;6725;121675;-82
2022/03/15 02:49:50;;;;;;;4.80;4.37;;;10.00;42.60;;;;;;20914;6726;118789;-78
2022/03/15 02:52:28;;;;;;;4.90;4.25;;;10.00;43.30;;;;;;20700;6726;335277;-77
2022/03/15 02:55:04;;;;;;;4.50;4.10;;;10.00;43.30;;;;;;20898;6726;119701;-81
2022/03/15 02:57:40;;;;;;;4.87;4.47;;;10.10;43.20;;;;;;20687;6726;308895;-82
2022/03/15 03:00:17;;;;;;;4.72;4.32;;;10.10;43.20;;;;;;20658;6726;292156;-78
2022/03/15 03:02:51;;;;;;;4.97;3.97;;;10.50;42.60;;;;;;20844;6740;117342;-82
2022/03/15 03:05:28;;;;;;;4.63;3.80;;;10.40;42.40;;;;;;20836;6740;125044;-82
2022/03/15 03:08:04;;;;;;;5.37;4.30;;;10.10;42.60;;;;;;20658;6740;307349;-77
2022/03/15 03:10:39;;;;;;;4.30;3.90;;;10.20;42.70;;;;;;20594;6741;280756;-82
2022/03/15 03:13:15;;;;;;;4.37;3.97;;;10.50;42.20;;;;;;20575;6756;311767;-77
2022/03/15 03:15:51;;;;;;;4.13;3.67;;;10.70;41.90;;;;;;20820;6756;116982;-77
2022/03/15 03:18:32;;;;;;;4.45;3.80;;;10.50;41.70;;;;;;20616;6756;336414;-79
2022/03/15 03:21:02;;;;;;;4.32;3.87;;;10.50;41.70;;;;;;20578;6741;281035;-77
2022/03/15 03:23:38;;;;;;;5.17;4.67;;;10.60;41.20;;;;;;20871;6741;117528;-79
2022/03/15 03:26:13;;;;;;;9.65;8.48;;;10.30;41.20;;;;;;20663;6741;335443;-81
2022/03/15 03:28:50;;;;;;;6.45;4.32;;;10.30;41.60;;;;;;20660;6741;277996;-79
2022/03/15 03:31:26;;;;;;;4.15;3.75;;;10.40;41.30;;;;;;20540;6741;337137;-77
2022/03/15 03:34:01;;;;;;;5.10;3.50;;;10.50;41.00;;;;;;20657;6741;280069;-81
2022/03/15 03:36:37;;;;;;;3.77;3.37;;;10.60;41.00;;;;;;20867;6741;116854;-81
2022/03/15 03:39:12;;;;;;;4.83;3.80;;;10.30;41.00;;;;;;20615;6741;293739;-78
2022/03/15 03:41:48;;;;;;;3.80;3.45;;;10.20;41.50;;;;;;20536;6741;336522;-77
2022/03/15 03:44:24;;;;;;;6.70;3.80;;;10.10;41.50;;;;;;20817;6756;116894;-81
2022/03/15 03:47:00;;;;;;;5.00;4.07;;;10.00;41.30;;;;;;20820;6755;116942;-77
2022/03/15 03:49:35;;;;;;;5.78;4.30;;;9.70;42.90;;;;;;20631;6750;279660;-83
2022/03/15 03:52:12;;;;;;;4.78;3.87;;;9.70;43.30;;;;;;20415;6809;308991;-82
2022/03/15 03:54:47;;;;;;;6.53;4.00;;;10.00;42.10;;;;;;20837;6751;117687;-79
2022/03/15 03:57:23;;;;;;;4.62;4.22;;;9.80;43.00;;;;;;20670;6733;335354;-79
2022/03/15 03:59:59;;;;;;;4.93;4.15;;;9.90;43.30;;;;;;20676;6732;304736;-77
2022/03/15 04:02:34;;;;;;;4.30;3.87;;;10.10;41.80;;;;;;20889;6735;116737;-80
2022/03/15 04:05:11;;;;;;;5.00;4.50;;;9.90;42.80;;;;;;20653;6740;307931;-77
2022/03/15 04:07:46;;;;;;;4.63;4.33;;;9.90;42.80;;;;;;20875;6740;116765;-81
2022/03/15 04:10:22;;;;;;;7.20;4.27;;;9.70;42.80;;;;;;20795;6749;119037;-77
2022/03/15 04:12:58;;;;;;;4.87;4.03;;;9.30;43.10;;;;;;20849;6750;116843;-81
2022/03/15 04:15:33;;;;;;;6.60;4.60;;;9.10;43.60;;;;;;20594;6750;337933;-78
2022/03/15 04:18:08;;;;;;;7.37;4.40;;;9.20;43.90;;;;;;20807;6755;116848;-77
2022/03/15 04:20:44;;;;;;;4.60;4.20;;;9.20;43.80;;;;;;20824;6736;117196;-80
2022/03/15 04:23:19;;;;;;;6.37;4.77;;;8.90;43.90;;;;;;20617;6734;307279;-76
2022/03/15 04:25:55;;;;;;;7.77;4.87;;;9.10;44.10;;;;;;20910;6735;119540;-80
2022/03/15 04:28:31;;;;;;;6.30;4.70;;;9.10;43.80;;;;;;20836;6750;116819;-78
2022/03/15 04:31:06;;;;;;;7.93;4.90;;;8.90;44.10;;;;;;20722;6734;117885;-76
2022/03/15 04:33:42;;;;;;;5.45;4.82;;;8.90;44.60;;;;;;20650;6737;336009;-76
2022/03/15 04:36:18;;;;;;;5.10;4.60;;;8.80;44.50;;;;;;20909;6727;116919;-80
2022/03/15 04:38:55;;;;;;;5.73;5.07;;;8.90;44.20;;;;;;20889;6734;116806;-82
2022/03/15 04:41:30;;;;;;;5.07;4.43;;;8.70;44.30;;;;;;20697;6748;117506;-75
2022/03/15 04:44:06;;;;;;;5.33;4.83;;;8.60;44.60;;;;;;20884;6749;117157;-76
2022/03/15 04:46:43;;;;;;;5.13;4.70;;;8.40;44.70;;;;;;20885;6739;116709;-74
2022/03/15 04:49:18;;;;;;;6.60;4.90;;;8.30;44.90;;;;;;20847;6741;143816;-75
2022/03/15 04:51:54;;;;;;;6.20;4.67;;;8.20;45.00;;;;;;20711;6749;117028;-75
2022/03/15 04:54:30;;;;;;;6.07;4.73;;;8.20;45.20;;;;;;20892;6734;117229;-75
2022/03/15 04:57:05;;;;;;;7.12;5.10;;;8.20;45.30;;;;;;20572;6756;308913;-75
2022/03/15 04:59:41;;;;;;;5.80;5.07;;;8.50;45.70;;;;;;20697;6727;280307;-73
2022/03/15 05:02:16;;;;;;;5.70;4.63;;;9.00;45.20;;;;;;20685;6798;117547;-72
2022/03/15 05:04:52;;;;;;;7.03;4.60;;;9.00;44.60;;;;;;20909;6727;116682;-72
2022/03/15 05:07:27;;;;;;;6.47;4.47;;;8.80;44.70;;;;;;20889;6727;119535;-73
2022/03/15 05:13:00;;;;;;;4.70;4.33;;;8.90;45.10;;;;;;20961;6712;119600;-72
2022/03/15 05:15:35;;;;;;;6.55;5.03;;;8.90;44.70;;;;;;20734;6712;308713;-73
2022/03/15 05:18:10;;;;;;;5.55;4.95;;;9.10;44.70;;;;;;20734;6712;303805;-75
2022/03/15 05:20:45;;;;;;;5.32;4.90;;;9.50;44.10;;;;;;20675;6719;277685;-73
2022/03/15 05:23:21;;;;;;;5.57;4.77;;;9.80;43.60;;;;;;20896;6726;116631;-73
2022/03/15 05:26:00;;;;;;;5.33;4.60;;;9.60;43.40;;;;;;20976;6710;116703;-72
2022/03/15 05:28:32;;;;;;;5.07;4.37;;;9.30;43.90;;;;;;20959;6714;116884;-72
2022/03/15 05:31:08;;;;;;;5.67;4.97;;;9.10;44.30;;;;;;20802;6712;117882;-73
2022/03/15 05:33:43;;;;;;;5.10;4.60;;;8.90;44.40;;;;;;20912;6729;118805;-75
2022/03/15 05:36:20;;;;;;;7.07;5.10;;;9.00;44.70;;;;;;20624;6733;331604;-74
2022/03/15 05:38:55;;;;;;;5.97;4.97;;;9.00;44.70;;;;;;20842;6751;117207;-74
2022/03/15 05:41:31;;;;;;;5.33;4.83;;;9.00;44.30;;;;;;20543;6730;281206;-73
2022/03/15 05:44:07;;;;;;;6.53;4.90;;;9.50;44.10;;;;;;20703;6727;278685;-72
2022/03/15 05:46:43;;;;;;;6.43;4.93;;;9.50;44.10;;;;;;20914;6726;117227;-74
2022/03/15 05:49:18;;;;;;;6.23;4.40;;;9.40;43.80;;;;;;20887;6726;117027;-73
2022/03/15 05:51:55;;;;;;;5.22;4.78;;;9.20;44.40;;;;;;20499;6728;342627;-74
2022/03/15 05:54:30;;;;;;;4.83;4.27;;;9.20;44.30;;;;;;20958;6701;121815;-73
2022/03/15 05:57:06;;;;;;;7.05;4.85;;;9.10;44.10;;;;;;20670;6734;336855;-74
2022/03/15 05:59:41;;;;;;;5.30;4.53;;;9.30;44.20;;;;;;20929;6722;117880;-74
2022/03/15 06:02:17;;;;;;;6.17;4.50;;;9.20;44.00;;;;;;20682;6800;117177;-75
2022/03/15 06:04:52;;;;;;;4.47;4.10;;;9.00;44.30;;;;;;20913;6727;114138;-74
2022/03/15 06:07:28;;;;;;;4.93;4.33;;;8.70;44.50;;;;;;20910;6722;119504;-74
2022/03/15 06:10:04;;;;;;;6.47;4.93;;;8.60;44.80;;;;;;20938;6710;116625;-74
2022/03/15 06:12:39;;;;;;;6.07;4.43;;;8.50;45.70;;;;;;20957;6712;117138;-74
2022/03/15 06:15:15;;;;;;;5.03;4.63;;;8.40;45.20;;;;;;20783;6797;118086;-73
2022/03/15 06:17:51;;;;;;;5.03;4.50;;;8.40;45.30;;;;;;20681;6727;307758;-72
2022/03/15 06:20:26;;;;;;;6.65;4.90;;;8.70;45.60;;;;;;20713;6713;307024;-73
2022/03/15 06:23:02;;;;;;;6.40;4.60;;;9.20;44.90;;;;;;20889;6727;126444;-75
2022/03/15 06:25:37;;;;;;;5.95;4.57;;;9.20;44.50;;;;;;20696;6726;307605;-77
2022/03/15 06:28:14;;;;;;;6.07;4.60;;;9.30;44.90;;;;;;20865;6739;117613;-77
2022/03/15 06:30:49;;;;;;;4.93;4.50;;;9.30;44.20;;;;;;20650;6713;285322;-80
2022/03/15 06:33:25;;;;;;;5.10;4.60;;;9.40;43.50;;;;;;20913;6713;117285;-79
2022/03/15 06:36:01;;;;;;;5.93;4.60;;;9.40;44.00;;;;;;20683;6734;306988;-75
2022/03/15 06:38:40;;;;;;;8.37;4.50;;;9.50;44.10;;;;;;20868;6736;117373;-76
2022/03/15 06:41:19;;;;;;;5.28;4.78;;;9.50;44.10;;;;;;20535;6734;307707;-77
2022/03/15 06:43:54;;;;;;;6.30;4.93;;;9.60;44.10;;;;;;20662;6732;306788;-77
2022/03/15 06:46:30;;;;;;;5.07;4.67;;;10.00;42.70;;;;;;20833;6759;118087;-74
2022/03/15 06:49:05;;;;;;;5.70;4.37;;;9.80;43.50;;;;;;20901;6729;117189;-74
2022/03/15 06:51:41;;;;;;;5.43;4.93;;;9.60;43.90;;;;;;20563;6727;336577;-74
2022/03/15 06:54:16;;;;;;;5.50;4.85;;;9.70;44.20;;;;;;20657;6742;306683;-70
2022/03/15 06:56:53;;;;;;;5.50;5.00;;;10.10;42.80;;;;;;20684;6747;278838;-70
2022/03/15 06:59:28;;;;;;;5.50;4.90;;;10.50;41.90;;;;;;20621;6754;275741;-69
2022/03/15 07:02:04;;;;;;;5.70;4.57;;;10.50;42.00;;;;;;20751;6728;117319;-70
2022/03/15 07:04:39;;;;;;;6.57;4.78;;;10.30;41.90;;;;;;20667;6743;335307;-71
2022/03/15 07:07:15;;;;;;;5.20;4.80;;;10.30;42.30;;;;;;20853;6743;117214;-76
2022/03/15 07:09:50;;;;;;;6.82;4.95;;;10.20;42.30;;;;;;20555;6764;344463;-77
2022/03/15 07:12:26;;;;;;;6.62;5.20;;;10.30;42.60;;;;;;20641;6742;276709;-74
2022/03/15 07:15:02;;;;;;;5.93;5.00;;;10.50;42.20;;;;;;20694;6723;305886;-77
2022/03/15 07:17:37;;;;;;;6.33;4.80;;;10.70;42.00;;;;;;20572;6756;276357;-76
2022/03/15 07:20:13;;;;;;;5.37;4.87;;;10.90;41.60;;;;;;20651;6732;287016;-75
2022/03/15 07:22:48;;;;;;;7.12;5.10;;;11.10;41.30;;;;;;20678;6733;308201;-75
2022/03/15 07:25:24;;;;;;;21.87;19.90;;;11.20;40.70;;;;;;20628;6724;335866;-74
2022/03/15 07:28:00;;;;;;;7.63;5.00;;;11.40;41.10;;;;;;20752;6719;304970;-75
2022/03/15 07:30:36;;;;;;;6.90;4.80;;;11.40;40.40;;;;;;20850;6725;119822;-74
2022/03/15 07:33:11;;;;;;;4.93;4.50;;;11.20;40.60;;;;;;20956;6706;120985;-74
2022/03/15 07:35:47;;;;;;;6.00;4.60;;;10.80;41.10;;;;;;20890;6734;122465;-72
2022/03/15 07:38:22;;;;;;;6.97;4.83;;;10.50;41.60;;;;;;20901;6734;116957;-72
2022/03/15 07:41:01;;;;;;;6.78;5.30;;;10.30;41.90;;;;;;20676;6712;338212;-72
2022/03/15 07:43:33;;;;;;;7.63;5.00;;;10.40;42.20;;;;;;20945;6719;116915;-70
2022/03/15 07:46:09;;;;;;;5.45;4.70;;;10.40;42.00;;;;;;20730;6719;335278;-72
2022/03/15 07:48:45;;;;;;;5.82;4.82;;;10.50;42.00;;;;;;20674;6732;308927;-69
2022/03/15 07:51:20;;;;;;;4.60;4.20;;;10.80;41.40;;;;;;20747;6734;122962;-69
2022/03/15 07:53:56;;;;;;;5.17;4.77;;;10.70;41.30;;;;;;20890;6734;117330;-69
2022/03/15 07:56:32;;;;;;;6.67;4.70;;;10.50;41.70;;;;;;20675;6729;334649;-69
2022/03/15 07:59:07;;;;;;;5.03;4.63;;;10.60;42.10;;;;;;20878;6732;118264;-70
2022/03/15 08:01:42;;;;;;;7.20;4.33;;;10.60;42.00;;;;;;20772;6734;117692;-69
2022/03/15 08:04:18;;;;;;;4.70;4.30;;;10.40;42.20;;;;;;20981;6704;117217;-70
2022/03/15 08:06:54;;;;;;;3.90;3.60;;;10.20;42.40;;;;;;20977;6704;117211;-70
2022/03/15 08:09:29;;;;;;;5.28;4.30;;;10.10;42.70;;;;;;20760;6704;307648;-69
2022/03/15 08:12:05;;;;;;;4.03;3.63;;;10.40;43.70;;;;;;20827;6704;117254;-69
2022/03/15 08:14:40;;;;;;;4.40;4.10;;;10.50;43.20;;;;;;20985;6712;117202;-69
2022/03/15 08:17:16;;;;;;;4.07;3.50;;;10.40;43.10;;;;;;20959;6712;130175;-70
2022/03/15 08:19:53;;;;;;;5.28;3.95;;;10.30;43.10;;;;;;20723;6729;335841;-70
2022/03/15 08:22:29;;;;;;;5.45;4.40;;;10.60;43.20;;;;;;20761;6713;304866;-70
2022/03/15 08:25:03;;;;;;;7.33;4.47;;;11.10;43.00;;;;;;20969;6713;117437;-70
2022/03/15 08:27:38;;;;;;;4.53;4.13;;;11.10;42.70;;;;;;20932;6729;116990;-70
2022/03/15 08:30:14;;;;;;;6.67;4.17;;;10.90;42.80;;;;;;20902;6729;116814;-73
2022/03/15 08:32:50;;;;;;;5.73;5.10;;;10.80;43.10;;;;;;20958;6714;116890;-73
2022/03/15 08:35:25;;;;;;;5.10;4.67;;;10.70;43.30;;;;;;20939;6714;119870;-73
2022/03/15 08:38:01;;;;;;;7.12;4.47;;;10.60;43.50;;;;;;20745;6714;318903;-73
2022/03/15 08:40:36;;;;;;;6.55;5.40;;;10.80;43.90;;;;;;20682;6714;290155;-73
2022/03/15 08:43:12;;;;;;;6.23;4.50;;;11.30;44.20;;;;;;20936;6714;116956;-73
2022/03/15 08:45:48;;;;;;;6.43;4.40;;;11.30;43.90;;;;;;20950;6714;117929;-73
2022/03/15 08:48:23;;;;;;;5.83;4.57;;;11.10;43.90;;;;;;20951;6714;117620;-73
2022/03/15 08:51:08;;;;;;;7.87;4.20;;;11.00;44.10;;;;;;20863;6714;117467;-70
2022/03/15 08:53:36;;;;;;;4.70;4.23;;;10.90;44.30;;;;;;20956;6714;117025;-75
2022/03/15 08:56:11;;;;;;;7.10;5.23;;;10.80;44.40;;;;;;20740;6714;276174;-74
2022/03/15 08:58:47;;;;;;;6.53;5.30;;;11.00;46.30;;;;;;20737;6714;323818;-75
2022/03/15 09:01:22;;;;;;;10.32;9.35;;;11.40;46.10;;;;;;20613;6714;308474;-72
2022/03/15 09:03:58;;;;;;;5.60;5.00;;;11.80;46.50;;;;;;20721;6729;275877;-73
2022/03/15 09:06:34;;;;;;;12.30;11.13;;;12.30;45.40;;;;;;20713;6729;303366;-73
2022/03/15 09:09:10;;;;;;;17.97;16.27;;;12.20;45.30;;;;;;20920;6729;117147;-72
2022/03/15 09:11:46;;;;;;;6.75;6.07;;;12.10;45.20;;;;;;20565;6729;336354;-72
2022/03/15 09:14:21;;;;;;;10.37;9.23;;;12.10;46.70;;;;;;20924;6729;117202;-72
2022/03/15 09:16:57;;;;;;;7.13;6.37;;;12.00;46.30;;;;;;20747;6729;276635;-73
2022/03/15 09:19:33;;;;;;;6.10;5.40;;;12.10;47.00;;;;;;20762;6703;336857;-73
2022/03/15 09:22:08;;;;;;;5.95;5.35;;;12.30;47.10;;;;;;20606;6703;336815;-73
2022/03/15 09:24:44;;;;;;;6.00;5.40;;;12.50;46.90;;;;;;20656;6731;306755;-72
2022/03/15 09:27:19;;;;;;;5.30;4.80;;;12.70;46.70;;;;;;20826;6739;117593;-68
2022/03/15 09:29:56;;;;;;;5.90;5.50;;;12.50;46.30;;;;;;20932;6721;117375;-68
2022/03/15 09:32:30;;;;;;;5.17;4.67;;;12.20;46.50;;;;;;20897;6726;118111;-69
2022/03/15 09:35:07;;;;;;;6.80;5.47;;;12.10;49.90;;;;;;20728;6711;304520;-69
2022/03/15 09:37:45;;;;;;;5.65;5.12;;;12.10;49.20;;;;;;20729;6719;280632;-69
2022/03/15 09:40:18;;;;;;;6.37;5.80;;;12.50;49.00;;;;;;20682;6726;278703;-69
2022/03/15 09:42:54;;;;;;;5.45;5.00;;;12.80;48.40;;;;;;20727;6726;305357;-69
2022/03/15 09:45:30;;;;;;;7.35;5.70;;;12.90;46.40;;;;;;20651;6735;307188;-68
2022/03/15 09:48:11;;;;;;;18.40;15.47;;;13.00;46.00;;;;;;20875;6728;118301;-69
2022/03/15 09:50:45;;;;;;;45.73;34.40;;;12.70;46.00;;;;;;20739;6755;120320;-68
2022/03/15 09:53:21;;;;;;;6.60;6.00;;;12.30;46.50;;;;;;20798;6749;117704;-69
2022/03/15 09:55:56;;;;;;;6.93;5.93;;;12.00;47.00;;;;;;20849;6754;117874;-69
2022/03/15 09:58:32;;;;;;;113.50;74.57;;;11.80;47.40;;;;;;20663;6744;276694;-69
2022/03/15 10:01:07;;;;;;;9.30;7.67;;;11.90;48.30;;;;;;20766;6744;118736;-69
2022/03/15 10:03:43;;;;;;;11.37;6.73;;;11.90;47.80;;;;;;20933;6722;117727;-71
2022/03/15 10:06:20;;;;;;;8.77;8.00;;;11.80;48.00;;;;;;20711;6722;340929;-68
2022/03/15 10:08:54;;;;;;;7.23;6.50;;;12.00;48.90;;;;;;20922;6724;116905;-70
2022/03/15 10:11:29;;;;;;;6.43;5.80;;;12.00;48.30;;;;;;20742;6737;118971;-67
2022/03/15 10:14:05;;;;;;;6.80;6.20;;;11.90;48.40;;;;;;20878;6739;116823;-69
2022/03/15 10:16:41;;;;;;;10.60;9.37;;;11.60;48.90;;;;;;20882;6737;117398;-72
2022/03/15 10:19:17;;;;;;;8.73;5.97;;;11.60;48.40;;;;;;20831;6737;123077;-72
2022/03/15 10:21:52;;;;;;;6.77;6.10;;;11.60;48.50;;;;;;20722;6734;117455;-71
2022/03/15 10:24:29;;;;;;;8.57;5.63;;;11.50;48.70;;;;;;20809;6751;117232;-71
2022/03/15 10:27:04;;;;;;;7.60;6.28;;;11.50;48.90;;;;;;20582;6764;307163;-72
2022/03/15 10:29:39;;;;;;;12.53;11.57;;;11.90;49.70;;;;;;20629;6751;276701;-71
2022/03/15 10:32:16;;;;;;;8.60;7.17;;;12.70;49.50;;;;;;20386;6823;313183;-72
2022/03/15 10:34:52;;;;;;;6.90;6.03;;;12.70;49.50;;;;;;20823;6757;118099;-71
2022/03/15 10:37:30;;;;;;;7.32;5.80;;;12.60;48.80;;;;;;20715;6721;317125;-71
2022/03/15 10:40:07;;;;;;;6.67;6.17;;;12.70;49.20;;;;;;20693;6738;278999;-73
2022/03/15 10:42:43;;;;;;;7.03;6.05;;;12.90;48.80;;;;;;20708;6738;309542;-68
2022/03/15 10:45:21;;;;;;;5.77;5.33;;;13.10;49.00;;;;;;20905;6738;117586;-68
2022/03/15 10:47:57;;;;;;;7.65;7.03;;;12.80;48.00;;;;;;20664;6738;280130;-72
2022/03/15 10:50:34;;;;;;;6.73;6.00;;;12.90;48.80;;;;;;20645;6726;308460;-72
2022/03/15 10:53:08;;;;;;;7.10;6.40;;;13.10;48.80;;;;;;20862;6738;117498;-70
2022/03/15 10:55:43;;;;;;;8.40;6.60;;;12.90;48.60;;;;;;20945;6722;117010;-70
2022/03/15 10:58:23;;;;;;;8.80;6.35;;;12.60;48.80;;;;;;20713;6723;305626;-78
2022/03/15 11:00:58;;;;;;;7.50;5.90;;;12.70;50.20;;;;;;20629;6723;286051;-73
2022/03/15 11:03:35;;;;;;;6.87;5.30;;;13.00;49.70;;;;;;20688;6730;305842;-75
2022/03/15 11:06:12;;;;;;;7.03;6.00;;;13.00;49.40;;;;;;20862;6745;116813;-73
2022/03/15 11:08:47;;;;;;;6.57;5.43;;;13.00;48.70;;;;;;20673;6735;306194;-72
2022/03/15 11:11:26;;;;;;;5.83;4.97;;;13.00;49.00;;;;;;20793;6728;117143;-73
2022/03/15 11:14:06;;;;;;;6.50;5.80;;;12.80;48.80;;;;;;20954;6712;116639;-72
2022/03/15 11:16:41;;;;;;;8.23;5.87;;;12.50;49.10;;;;;;20950;6712;116853;-73
2022/03/15 11:19:17;;;;;;;7.45;6.62;;;12.30;49.40;;;;;;20715;6714;275791;-70
2022/03/15 11:21:52;;;;;;;6.50;6.00;;;12.40;50.40;;;;;;20500;6739;278990;-68
2022/03/15 11:24:28;;;;;;;7.97;5.73;;;12.70;49.70;;;;;;20981;6704;117533;-74
2022/03/15 11:27:04;;;;;;;6.77;5.97;;;12.60;49.30;;;;;;20944;6704;124647;-69
2022/03/15 11:29:40;;;;;;;7.97;6.97;;;12.20;49.40;;;;;;20754;6709;306258;-70
2022/03/15 11:32:15;;;;;;;7.70;6.90;;;12.30;50.50;;;;;;20734;6732;278743;-69
2022/03/15 11:34:50;;;;;;;7.60;6.90;;;12.50;50.30;;;;;;20727;6729;306473;-69
2022/03/15 11:37:26;;;;;;;6.93;6.30;;;12.70;50.00;;;;;;20667;6729;337444;-70
2022/03/15 11:40:04;;;;;;;7.07;6.10;;;12.80;49.20;;;;;;20672;6729;306513;-67
2022/03/15 11:42:44;;;;;;;7.40;5.70;;;12.90;49.10;;;;;;20901;6729;117622;-75
2022/03/15 11:45:19;;;;;;;6.97;5.77;;;12.70;49.10;;;;;;20892;6729;119627;-71
2022/03/15 11:48:22;;;;;;;8.30;6.15;;;12.30;49.40;;;;;;20688;6729;294117;-70
2022/03/15 11:51:00;;;;;;;7.87;6.80;;;12.30;50.00;;;;;;20838;6729;116860;-75
2022/03/15 11:54:12;;;;;;;6.90;6.20;;;12.20;49.60;;;;;;20873;6738;117483;-71
2022/03/15 11:56:52;;;;;;;6.80;6.10;;;11.70;50.00;;;;;;19826;7081;118056;-71
2022/03/15 11:59:45;;;;;;;8.37;7.47;;;11.70;50.00;;;;;;20381;6773;341180;-69
2022/03/15 12:02:34;;;;;;;8.00;6.57;;;11.80;51.30;;;;;;20853;6746;116920;-74
2022/03/15 12:05:18;;;;;;;6.67;6.07;;;11.80;51.30;;;;;;20860;6746;116875;-79
2022/03/15 12:08:12;;;;;;;7.27;6.57;;;11.50;51.30;;;;;;20637;6749;303782;-79
2022/03/15 12:10:56;;;;;;;7.23;5.97;;;11.70;52.50;;;;;;20775;6752;116922;-78
2022/03/15 12:13:41;;;;;;;8.20;7.50;;;11.60;51.90;;;;;;20737;6708;279267;-75
2022/03/15 12:16:22;;;;;;;7.97;7.25;;;11.80;52.70;;;;;;20719;6723;340186;-74
2022/03/15 12:19:39;;;;;;;8.45;7.65;;;12.10;52.50;;;;;;20733;6723;276870;-74
2022/03/15 12:21:48;;;;;;;8.27;6.97;;;12.30;52.40;;;;;;20453;6767;340139;-78
2022/03/15 12:24:24;;;;;;;8.10;7.40;;;12.50;52.10;;;;;;20737;6723;306029;-76
2022/03/15 12:26:59;;;;;;;8.50;7.70;;;12.50;51.80;;;;;;20738;6723;291601;-78
2022/03/15 12:29:39;;;;;;;9.53;7.43;;;12.70;51.60;;;;;;20692;6741;298449;-75
2022/03/15 12:32:12;;;;;;;8.13;7.43;;;12.80;51.40;;;;;;20588;6726;279665;-78
2022/03/15 12:34:51;;;;;;;8.53;7.63;;;12.90;50.00;;;;;;20749;6726;305091;-77
2022/03/15 12:37:37;;;;;;;7.50;6.80;;;12.90;50.40;;;;;;20737;6726;305536;-77
2022/03/15 12:40:10;;;;;;;7.23;6.53;;;12.90;50.40;;;;;;20730;6726;277895;-75
2022/03/15 12:42:50;;;;;;;6.70;6.20;;;13.00;50.50;;;;;;20764;6726;276109;-76
2022/03/15 12:45:25;;;;;;;7.23;6.63;;;13.10;50.60;;;;;;20695;6723;309137;-76
2022/03/15 12:48:05;;;;;;;6.73;6.10;;;13.10;50.70;;;;;;20925;6723;117452;-75
2022/03/15 12:50:39;;;;;;;6.90;6.20;;;12.90;50.60;;;;;;20849;6723;116813;-72
2022/03/15 12:53:15;;;;;;;6.77;6.10;;;12.40;51.00;;;;;;20826;6741;117005;-73
2022/03/15 12:55:51;;;;;;;5.90;5.40;;;12.20;51.50;;;;;;20879;6741;119192;-75
2022/03/15 12:58:30;;;;;;;8.00;6.85;;;12.20;53.30;;;;;;20626;6741;328830;-73
2022/03/15 13:01:06;;;;;;;6.80;6.23;;;12.10;53.60;;;;;;20736;6753;118424;-72
2022/03/15 13:03:42;;;;;;;6.85;6.35;;;12.20;52.80;;;;;;20711;6723;280959;-72
2022/03/15 13:06:18;;;;;;;7.35;6.70;;;12.40;53.30;;;;;;20711;6723;310448;-72
2022/03/15 13:08:57;;;;;;;7.65;6.85;;;12.90;52.50;;;;;;20700;6723;306766;-71
2022/03/15 13:11:33;;;;;;;7.47;6.33;;;12.90;52.50;;;;;;20630;6708;278469;-71
2022/03/15 13:14:08;;;;;;;6.47;5.97;;;13.10;51.60;;;;;;20755;6708;292714;-68
2022/03/15 13:16:44;;;;;;;6.40;5.83;;;13.30;51.60;;;;;;20887;6723;119880;-69
2022/03/15 13:19:29;;;;;;;6.47;4.87;;;13.10;51.50;;;;;;20904;6716;116646;-71
2022/03/15 13:22:07;;;;;;;6.00;5.50;;;12.40;52.30;;;;;;20716;6731;117163;-78
2022/03/15 13:24:44;;;;;;;5.80;5.30;;;12.40;52.30;;;;;;20920;6723;116754;-78
2022/03/15 13:27:20;;;;;;;5.37;4.87;;;12.00;53.00;;;;;;20893;6723;116764;-75